• Join FlightAware (Why Join?)
  • Login
  • US Flag 
12:10PM EDT


 

Airport Tracker/Info


-or-


 

Live Flight TrackerFlight Track Log ✈ SLI533 ✈ 07-May-2013 ✈ MMMX / MEX - MMMD / MID

Flight Track Log - Related Links

Times and Time Zones

All times are in EDT time to prevent confusion due to time zone crossing. See the SLI533 flight status page for this flight to view local times or setup timezone preferences in your user account.

Time Position Orientation Groundspeed Altitude Reporting Facility
EDT Latitude Longitude Course Direction KTS MPH feet Rate Location/Type
03:29PM 19.9325 -96.3046 79° East  Level Estimated
03:30PM 19.9488 -96.2089 80° East  Level Estimated
03:31PM 19.9651 -96.1131 80° East  Level Estimated
03:32PM 19.9814 -96.0174 80° East  Level Estimated
03:33PM 19.9976 -95.9216 80° East  Level Estimated
03:34PM 20.0137 -95.8258 80° East  Level Estimated
03:35PM 20.0298 -95.7299 80° East  Level Estimated
03:36PM 20.0458 -95.6341 80° East  Level Estimated
03:37PM 20.0618 -95.5382 80° East  Level Estimated
03:38PM 20.0778 -95.4423 80° East  Level Estimated
03:39PM 20.0937 -95.3464 80° East  Level Estimated
03:40PM 20.1095 -95.2505 80° East  Level Estimated
03:41PM 20.1253 -95.1545 80° East  Level Estimated
03:42PM 20.1410 -95.0586 80° East  Level Estimated
03:43PM 20.1567 -94.9626 80° East  Level Estimated
03:44PM 20.1723 -94.8666 80° East  Level Estimated
03:45PM 20.1879 -94.7705 80° East  Level Estimated
03:46PM 20.2034 -94.6745 80° East  Level Estimated
03:47PM 20.2189 -94.5784 80° East  Level Estimated
03:48PM 20.2343 -94.4823 80° East  Level Estimated
03:49PM 20.2496 -94.3862 80° East  Level Estimated
03:50PM 20.2649 -94.2901 80° East  Level Estimated
03:51PM 20.2802 -94.1940 80° East  Level Estimated
03:52PM 20.2954 -94.0978 80° East  Level Estimated
03:53PM 20.3106 -94.0016 80° East  Level Estimated
03:54PM 20.3257 -93.9054 80° East  Level Estimated
03:55PM 20.3407 -93.8092 81° East  Level Estimated
03:56PM 20.3557 -93.7130 81° East  Level Estimated
03:57PM 20.3707 -93.6167 81° East  Level Estimated
03:58PM 20.3855 -93.5205 81° East  Level Estimated
03:59PM 20.4004 -93.4242 81° East  Level Estimated
04:00PM 20.4152 -93.3279 81° East  Level Estimated
04:01PM 20.4299 -93.2315 81° East  Level Estimated
04:02PM 20.4446 -93.1352 81° East  Level Estimated
04:03PM 20.4592 -93.0388 81° East  Level Estimated
04:04PM 20.4738 -92.9425 81° East  Level Estimated
04:05PM 20.4883 -92.8460 81° East  Level Estimated
04:06PM 20.5028 -92.7496 81° East  Level Estimated
04:07PM 20.5172 -92.6532 81° East  Level Estimated
04:08PM 20.5315 -92.5567 81° East  Level Estimated
04:09PM 20.5459 -92.4603 81° East  Level Estimated
04:10PM 20.5601 -92.3638 81° East  Level Estimated
04:11PM 20.5743 -92.2673 81° East  Level Estimated
04:12PM 20.5885 -92.1707 81° East  Level Estimated
04:13PM 20.6026 -92.0742 81° East  Level Estimated
04:14PM 20.6166 -91.9776 81° East  Level Estimated
04:15PM 20.6306 -91.8810 81° East  Level Estimated
04:16PM 20.6445 -91.7844 81° East  Level Estimated
04:17PM 20.6584 -91.6878 81° East  Level Estimated
04:18PM 20.6722 -91.5912 81° East  Level Estimated
04:19PM 20.6860 -91.4945 81° East  Level Estimated
04:20PM 20.6997 -91.3979 81° East  Level Estimated